createdAt,value
2022-11-05T00:02:49.362Z,10.35
2022-11-05T00:06:12.684Z,10.33
2022-11-05T00:09:31.038Z,10.39
2022-11-05T00:12:53.528Z,10.36
2022-11-05T00:16:16.416Z,10.36
2022-11-05T00:19:20.331Z,10.36
2022-11-05T00:22:42.879Z,10.32
2022-11-05T00:26:00.219Z,10.29
2022-11-05T00:29:04.402Z,10.31
2022-11-05T00:32:08.232Z,10.27
2022-11-05T00:35:12.261Z,10.29
2022-11-05T00:38:16.490Z,10.28
2022-11-05T00:41:20.397Z,10.24
2022-11-05T00:44:43.178Z,10.26
2022-11-05T00:48:05.956Z,10.33
2022-11-05T00:51:10.154Z,10.31
2022-11-05T00:54:14.027Z,10.23
2022-11-05T00:57:18.119Z,10.24
2022-11-05T01:00:23.303Z,10.20
2022-11-05T01:03:33.362Z,10.22
2022-11-05T01:06:37.208Z,10.21
2022-11-05T01:09:41.047Z,10.19
2022-11-05T01:12:45.061Z,10.11
2022-11-05T01:15:50.747Z,10.17
2022-11-05T01:18:54.872Z,10.12
2022-11-05T01:21:58.932Z,10.14
2022-11-05T01:25:03.780Z,10.16
2022-11-05T01:28:09.449Z,10.11
2022-11-05T01:31:13.667Z,10.14
2022-11-05T01:34:17.576Z,10.18
2022-11-05T01:37:21.647Z,10.15
2022-11-05T01:40:26.178Z,10.11
2022-11-05T01:43:46.050Z,10.10
2022-11-05T01:46:49.818Z,10.04
2022-11-05T01:49:57.287Z,10.06
2022-11-05T01:53:13.211Z,10.11
2022-11-05T01:56:31.878Z,10.10
2022-11-05T01:59:44.027Z,10.16
2022-11-05T02:02:48.300Z,10.03
2022-11-05T02:05:56.506Z,10.06
2022-11-05T02:09:20.046Z,10.06
2022-11-05T02:12:24.232Z,10.00
2022-11-05T02:15:55.183Z,9.96
2022-11-05T02:19:13.234Z,9.90
2022-11-05T02:22:38.712Z,9.89
2022-11-05T02:26:10.696Z,9.86
2022-11-05T02:29:23.802Z,9.83
2022-11-05T02:32:39.591Z,9.84
2022-11-05T02:35:54.356Z,9.91
2022-11-05T02:39:13.417Z,9.88
2022-11-05T02:42:20.523Z,9.87
2022-11-05T02:45:42.835Z,9.88
2022-11-05T02:48:55.091Z,9.92
2022-11-05T02:52:04.382Z,9.90
2022-11-05T02:55:29.565Z,9.86
2022-11-05T02:58:35.388Z,9.87
2022-11-05T03:01:42.175Z,9.85
2022-11-05T03:04:46.258Z,9.86
2022-11-05T03:08:05.419Z,9.83
2022-11-05T03:11:17.560Z,9.82
2022-11-05T03:14:28.806Z,9.79
2022-11-05T03:17:48.529Z,9.81
2022-11-05T03:21:21.631Z,9.79
2022-11-05T03:24:33.070Z,9.73
2022-11-05T03:27:40.780Z,9.72
2022-11-05T03:30:45.753Z,9.69
2022-11-05T03:33:53.161Z,9.71
2022-11-05T03:36:58.287Z,9.68
2022-11-05T03:40:06.145Z,9.76
2022-11-05T03:43:10.352Z,9.75
2022-11-05T03:46:21.968Z,9.78
2022-11-05T03:49:30.081Z,9.76
2022-11-05T03:52:41.689Z,9.75
2022-11-05T03:55:56.656Z,9.79
2022-11-05T03:59:02.917Z,9.76
2022-11-05T04:02:07.257Z,9.73
2022-11-05T04:05:11.798Z,9.67
2022-11-05T04:08:34.348Z,9.67
2022-11-05T04:11:57.029Z,9.63
2022-11-05T04:15:01.227Z,9.61
2022-11-05T04:18:05.160Z,9.56
2022-11-05T04:21:29.002Z,9.53
2022-11-05T04:24:32.968Z,9.49
2022-11-05T04:27:37.282Z,9.45
2022-11-05T04:30:41.375Z,9.38
2022-11-05T04:33:45.407Z,9.34
2022-11-05T04:36:50.412Z,9.32
2022-11-05T04:39:54.265Z,9.29
2022-11-05T04:42:58.443Z,9.25
2022-11-05T04:46:02.544Z,9.20
2022-11-05T04:49:06.305Z,9.19
2022-11-05T04:52:10.136Z,9.13
2022-11-05T04:55:14.039Z,9.14
2022-11-05T04:58:18.060Z,9.19
2022-11-05T05:01:23.381Z,9.23
2022-11-05T05:04:27.542Z,9.30
2022-11-05T05:07:33.113Z,9.25
2022-11-05T05:10:37.228Z,9.18
2022-11-05T05:13:41.785Z,9.16
2022-11-05T05:16:45.990Z,9.05
2022-11-05T05:20:08.304Z,9.04
2022-11-05T05:23:12.447Z,9.00
2022-11-05T05:26:17.073Z,8.97
2022-11-05T05:29:21.321Z,8.87
2022-11-05T05:32:26.016Z,8.82
2022-11-05T05:35:30.351Z,8.81
2022-11-05T05:38:34.123Z,8.78
2022-11-05T05:41:38.134Z,8.80
2022-11-05T05:44:42.484Z,8.77
2022-11-05T05:47:46.283Z,8.73
2022-11-05T05:50:50.017Z,8.71
2022-11-05T05:53:54.846Z,8.67
2022-11-05T05:56:58.659Z,8.64
2022-11-05T06:00:04.429Z,8.54
2022-11-05T06:03:08.304Z,8.51
2022-11-05T06:06:13.560Z,8.50
2022-11-05T06:09:17.233Z,8.45
2022-11-05T06:12:21.002Z,8.39
2022-11-05T06:15:24.749Z,8.39
2022-11-05T06:18:30.284Z,8.31
2022-11-05T06:21:34.315Z,8.28
2022-11-05T06:24:38.181Z,8.29
2022-11-05T06:27:42.059Z,8.28
2022-11-05T06:30:51.692Z,8.18
2022-11-05T06:33:55.655Z,8.21
2022-11-05T06:36:59.570Z,8.20
2022-11-05T06:40:03.948Z,8.18
2022-11-05T06:43:07.983Z,8.17
2022-11-05T06:46:12.340Z,8.20
2022-11-05T06:49:16.483Z,8.23
2022-11-05T06:52:20.494Z,8.27
2022-11-05T06:55:25.525Z,8.29
2022-11-05T06:58:30.849Z,8.27
2022-11-05T07:01:35.515Z,8.27
2022-11-05T07:04:39.630Z,8.30
2022-11-05T07:07:45.107Z,8.29
2022-11-05T07:10:49.187Z,8.25
2022-11-05T07:13:52.739Z,8.28
2022-11-05T07:16:57.234Z,8.30
2022-11-05T07:20:01.479Z,8.33
2022-11-05T07:23:11.432Z,8.39
2022-11-05T07:26:15.499Z,8.41
2022-11-05T07:29:19.671Z,8.49
2022-11-05T07:32:23.935Z,8.52
2022-11-05T07:35:28.479Z,8.57
2022-11-05T07:38:32.375Z,8.64
2022-11-05T07:41:36.204Z,8.68
2022-11-05T07:44:40.353Z,8.74
2022-11-05T07:47:52.831Z,8.82
2022-11-05T07:50:56.981Z,8.90
2022-11-05T07:54:00.774Z,8.91
2022-11-05T07:57:04.875Z,9.00
2022-11-05T08:00:17.139Z,9.06
2022-11-05T08:03:21.229Z,9.16
2022-11-05T08:06:25.894Z,9.23
2022-11-05T08:09:29.838Z,9.40
2022-11-05T08:12:33.876Z,9.55
2022-11-05T08:15:37.834Z,9.79
2022-11-05T08:18:41.957Z,9.93
2022-11-05T08:21:46.304Z,10.07
2022-11-05T08:24:50.128Z,10.17
2022-11-05T08:28:06.559Z,10.31
2022-11-05T08:31:10.526Z,10.36
2022-11-05T08:34:14.634Z,10.43
2022-11-05T08:37:18.525Z,10.65
2022-11-05T08:40:22.220Z,10.83
2022-11-05T08:43:26.344Z,11.17
2022-11-05T08:46:30.635Z,11.90
2022-11-05T08:49:34.436Z,12.16
2022-11-05T08:52:40.380Z,12.36
2022-11-05T08:55:44.714Z,12.23
2022-11-05T08:58:48.460Z,12.09
2022-11-05T09:01:53.104Z,12.03
2022-11-05T09:04:57.608Z,12.17
2022-11-05T09:08:01.804Z,12.41
2022-11-05T09:11:05.872Z,12.28
2022-11-05T09:14:09.821Z,12.14
2022-11-05T09:17:21.784Z,11.99
2022-11-05T09:20:25.712Z,11.88
2022-11-05T09:23:29.603Z,11.87
2022-11-05T09:26:33.671Z,11.71
2022-11-05T09:29:37.744Z,11.71
2022-11-05T09:32:41.669Z,11.62
2022-11-05T09:35:45.632Z,11.61
2022-11-05T09:38:50.055Z,11.45
2022-11-05T09:42:00.556Z,11.43
2022-11-05T09:45:18.342Z,11.48
2022-11-05T09:48:27.641Z,11.40
2022-11-05T09:51:32.589Z,11.45
2022-11-05T09:54:37.657Z,11.48
2022-11-05T09:57:47.081Z,11.54
2022-11-05T10:00:52.787Z,11.45
2022-11-05T10:03:59.639Z,11.39
2022-11-05T10:07:07.315Z,11.32
2022-11-05T10:10:41.129Z,11.46
2022-11-05T10:13:50.459Z,11.47
2022-11-05T10:17:09.460Z,11.39
2022-11-05T10:20:32.447Z,11.48
2022-11-05T10:23:36.515Z,11.71
2022-11-05T10:26:40.422Z,11.83
2022-11-05T10:29:45.046Z,11.95
2022-11-05T10:32:54.128Z,12.08
2022-11-05T10:36:04.887Z,12.03
2022-11-05T10:39:14.718Z,12.09
2022-11-05T10:42:21.489Z,12.12
2022-11-05T10:45:34.972Z,12.06
2022-11-05T10:48:43.956Z,12.21
2022-11-05T10:51:55.533Z,12.38
2022-11-05T10:55:01.608Z,12.41
2022-11-05T10:58:09.723Z,12.34
2022-11-05T11:01:13.812Z,12.50
2022-11-05T11:04:25.046Z,12.78
2022-11-05T11:07:28.892Z,12.77
2022-11-05T11:10:47.920Z,12.75
2022-11-05T11:13:57.927Z,12.84
2022-11-05T11:17:24.500Z,13.02
2022-11-05T11:20:31.349Z,13.35
2022-11-05T11:23:40.889Z,13.48
2022-11-05T11:26:44.759Z,13.38
2022-11-05T11:29:54.959Z,13.29
2022-11-05T11:33:06.198Z,13.05
2022-11-05T11:36:12.185Z,12.65
2022-11-05T11:39:19.936Z,12.44
2022-11-05T11:42:27.333Z,12.54
2022-11-05T11:45:45.524Z,12.70
2022-11-05T11:48:50.136Z,12.85
2022-11-05T11:52:01.487Z,12.91
2022-11-05T11:55:11.623Z,12.83
2022-11-05T11:58:15.862Z,13.02
2022-11-05T12:01:32.304Z,13.04
2022-11-05T12:05:03.439Z,12.75
2022-11-05T12:08:14.440Z,12.41
2022-11-05T12:11:27.937Z,12.16
2022-11-05T12:14:51.823Z,12.17
2022-11-05T12:18:01.745Z,12.23
2022-11-05T12:21:47.733Z,12.40
2022-11-05T12:25:22.704Z,12.74
2022-11-05T12:28:36.039Z,13.07
2022-11-05T12:31:57.883Z,13.32
2022-11-05T12:35:05.059Z,13.44
2022-11-05T12:38:26.201Z,13.44
2022-11-05T12:41:54.925Z,13.34
2022-11-05T12:45:45.436Z,13.17
2022-11-05T12:49:01.807Z,13.04
2022-11-05T12:52:15.151Z,12.93
2022-11-05T12:55:25.320Z,12.75
2022-11-05T12:58:35.497Z,12.64
2022-11-05T13:01:45.599Z,12.54
2022-11-05T13:04:54.195Z,12.37
2022-11-05T13:08:12.993Z,12.15
2022-11-05T13:11:23.872Z,12.00
2022-11-05T13:14:27.905Z,11.87
2022-11-05T13:17:51.261Z,11.76
2022-11-05T13:20:56.600Z,11.68
2022-11-05T13:24:39.045Z,11.72
2022-11-05T13:27:56.571Z,11.64
2022-11-05T13:31:03.384Z,11.70
2022-11-05T13:34:12.334Z,11.74
2022-11-05T13:37:41.054Z,11.75
2022-11-05T13:40:53.642Z,11.75
2022-11-05T13:44:14.571Z,11.79
2022-11-05T13:47:36.589Z,11.93
2022-11-05T13:50:53.046Z,11.96
2022-11-05T13:54:35.091Z,12.00
2022-11-05T13:57:42.095Z,11.92
2022-11-05T14:01:00.915Z,11.92
2022-11-05T14:04:05.485Z,11.81
2022-11-05T14:07:20.874Z,11.73
2022-11-05T14:10:36.112Z,11.63
2022-11-05T14:13:43.841Z,11.58
2022-11-05T14:16:52.027Z,11.57
2022-11-05T14:20:04.802Z,11.61
2022-11-05T14:23:36.242Z,11.59
2022-11-05T14:26:39.989Z,11.59
2022-11-05T14:29:46.036Z,11.57
2022-11-05T14:32:50.941Z,11.58
2022-11-05T14:36:20.348Z,11.55
2022-11-05T14:39:32.240Z,11.51
2022-11-05T14:42:37.248Z,11.47
2022-11-05T14:45:57.581Z,11.47
2022-11-05T14:49:09.051Z,11.44
2022-11-05T14:52:15.248Z,11.38
2022-11-05T14:55:36.566Z,11.32
2022-11-05T14:58:42.811Z,11.29
2022-11-05T15:01:47.447Z,11.25
2022-11-05T15:05:30.590Z,11.17
2022-11-05T15:08:54.639Z,11.10
2022-11-05T15:12:02.408Z,11.03
2022-11-05T15:15:27.790Z,11.03
2022-11-05T15:18:45.633Z,10.96
2022-11-05T15:21:51.191Z,10.89
2022-11-05T15:24:55.523Z,10.87
2022-11-05T15:28:12.628Z,10.82
2022-11-05T15:31:16.571Z,10.75
2022-11-05T15:34:35.572Z,10.76
2022-11-05T15:37:51.736Z,10.71
2022-11-05T15:41:05.278Z,10.64
2022-11-05T15:44:30.975Z,10.58
2022-11-05T15:47:35.190Z,10.54
2022-11-05T15:50:39.906Z,10.50
2022-11-05T15:57:29.693Z,10.44
2022-11-05T16:00:36.448Z,10.42
2022-11-05T16:03:41.622Z,10.38
2022-11-05T16:06:48.691Z,10.33
2022-11-05T16:09:59.553Z,10.29
2022-11-05T16:13:37.021Z,10.25
2022-11-05T16:16:41.504Z,10.23
2022-11-05T16:19:46.633Z,10.16
2022-11-05T16:22:53.798Z,10.12
2022-11-05T16:25:57.780Z,10.05
2022-11-05T16:29:31.248Z,10.01
2022-11-05T16:32:35.415Z,9.97
2022-11-05T16:35:49.076Z,9.93
2022-11-05T16:38:53.295Z,9.89
2022-11-05T16:41:57.629Z,9.84
2022-11-05T16:45:01.882Z,9.80
2022-11-05T16:48:06.421Z,9.76
2022-11-05T16:51:11.616Z,9.70
2022-11-05T16:54:15.460Z,9.68
2022-11-05T16:57:28.796Z,9.75
2022-11-05T17:00:33.421Z,9.68
2022-11-05T17:03:37.430Z,9.58
2022-11-05T17:06:41.155Z,9.49
2022-11-05T17:09:45.256Z,9.47
2022-11-05T17:12:49.401Z,9.45
2022-11-05T17:15:53.304Z,9.47
2022-11-05T17:18:57.898Z,9.50
2022-11-05T17:22:01.852Z,9.43
2022-11-05T17:25:06.136Z,9.41
2022-11-05T17:28:10.817Z,9.40
2022-11-05T17:31:17.249Z,9.34
2022-11-05T17:34:21.440Z,9.29
2022-11-05T17:37:25.710Z,9.19
2022-11-05T17:40:30.392Z,9.16
2022-11-05T17:43:34.443Z,9.20
2022-11-05T17:46:38.187Z,9.12
2022-11-05T17:49:42.196Z,9.09
2022-11-05T17:52:46.463Z,9.04
2022-11-05T17:55:50.647Z,9.02
2022-11-05T17:58:55.411Z,9.01
2022-11-05T18:01:59.360Z,9.01
2022-11-05T18:05:03.735Z,9.02
2022-11-05T18:08:09.009Z,9.00
2022-11-05T18:11:13.289Z,9.06
2022-11-05T18:14:22.814Z,9.02
2022-11-05T18:17:28.008Z,9.00
2022-11-05T18:20:32.202Z,8.98
2022-11-05T18:23:36.318Z,8.91
2022-11-05T18:26:40.585Z,8.82
2022-11-05T18:29:44.409Z,8.79
2022-11-05T18:32:48.286Z,8.79
2022-11-05T18:35:52.383Z,8.72
2022-11-05T18:38:58.652Z,8.71
2022-11-05T18:42:03.880Z,8.66
2022-11-05T18:45:09.657Z,8.59
2022-11-05T18:48:13.669Z,8.57
2022-11-05T18:51:17.915Z,8.54
2022-11-05T18:54:22.047Z,8.52
2022-11-05T18:57:27.025Z,8.53
2022-11-05T19:00:32.040Z,8.57
2022-11-05T19:03:36.236Z,8.57
2022-11-05T19:06:41.140Z,8.54
2022-11-05T19:09:45.234Z,8.49
2022-11-05T19:12:49.283Z,8.46
2022-11-05T19:15:53.718Z,8.48
2022-11-05T19:18:59.697Z,8.44
2022-11-05T19:22:03.877Z,8.40
2022-11-05T19:25:08.094Z,8.36
2022-11-05T19:28:12.607Z,8.34
2022-11-05T19:31:19.608Z,8.33
2022-11-05T19:34:23.881Z,8.30
2022-11-05T19:37:28.375Z,8.27
2022-11-05T19:40:32.531Z,8.26
2022-11-05T19:43:37.591Z,8.23
2022-11-05T19:46:41.610Z,8.20
2022-11-05T19:49:46.257Z,8.25
2022-11-05T19:52:50.392Z,8.23
2022-11-05T19:55:54.735Z,8.23
2022-11-05T19:58:59.522Z,8.20
2022-11-05T20:02:04.407Z,8.11
2022-11-05T20:05:09.183Z,8.08
2022-11-05T20:08:13.514Z,8.09
2022-11-05T20:11:18.552Z,8.13
2022-11-05T20:14:24.592Z,8.04
2022-11-05T20:17:28.818Z,8.05
2022-11-05T20:20:33.041Z,8.01
2022-11-05T20:23:37.303Z,7.95
2022-11-05T20:26:41.642Z,7.93
2022-11-05T20:29:45.572Z,7.91
2022-11-05T20:32:56.002Z,7.91
2022-11-05T20:36:02.762Z,7.87
2022-11-05T20:39:06.951Z,7.85
2022-11-05T20:42:11.152Z,7.89
2022-11-05T20:45:15.361Z,7.87
2022-11-05T20:48:19.173Z,7.82
2022-11-05T20:51:24.376Z,7.79
2022-11-05T20:54:28.125Z,7.70
2022-11-05T20:57:31.892Z,7.68
2022-11-05T21:00:35.829Z,7.68
2022-11-05T21:03:40.161Z,7.62
2022-11-05T21:06:43.990Z,7.60
2022-11-05T21:09:48.054Z,7.60
2022-11-05T21:12:51.805Z,7.55
2022-11-05T21:15:58.366Z,7.53
2022-11-05T21:19:02.888Z,7.52
2022-11-05T21:22:07.302Z,7.53
2022-11-05T21:25:11.774Z,7.48
2022-11-05T21:28:16.409Z,7.46
2022-11-05T21:31:20.518Z,7.43
2022-11-05T21:34:24.515Z,7.39
2022-11-05T21:37:28.700Z,7.46
2022-11-05T21:40:32.892Z,7.39
2022-11-05T21:43:38.619Z,7.38
2022-11-05T21:46:42.800Z,7.40
2022-11-05T21:49:46.840Z,7.34
2022-11-05T21:53:09.526Z,7.36
2022-11-05T21:56:37.913Z,7.36
2022-11-05T21:59:48.260Z,7.29
2022-11-05T22:02:52.276Z,7.23
2022-11-05T22:05:56.594Z,7.25
2022-11-05T22:09:00.393Z,7.21
2022-11-05T22:12:05.134Z,7.26
2022-11-05T22:15:09.568Z,7.27
2022-11-05T22:18:13.803Z,7.24
2022-11-05T22:21:18.640Z,7.15
2022-11-05T22:24:23.168Z,7.08
2022-11-05T22:27:27.462Z,7.06
2022-11-05T22:30:35.406Z,7.06
2022-11-05T22:33:39.115Z,7.03
2022-11-05T22:36:42.968Z,7.05
2022-11-05T22:39:46.868Z,7.02
2022-11-05T22:42:50.885Z,7.05
2022-11-05T22:45:54.844Z,7.08
2022-11-05T22:48:59.823Z,7.03
2022-11-05T22:52:03.847Z,7.16
2022-11-05T22:55:08.253Z,7.12
2022-11-05T22:58:12.438Z,7.07
2022-11-05T23:01:17.598Z,7.06
2022-11-05T23:04:21.411Z,7.01
2022-11-05T23:07:43.788Z,6.98
2022-11-05T23:11:06.694Z,6.98
2022-11-05T23:14:12.898Z,7.04
2022-11-05T23:17:35.469Z,7.03
2022-11-05T23:20:58.386Z,6.92
2022-11-05T23:24:05.551Z,6.86
2022-11-05T23:27:09.954Z,6.84
2022-11-05T23:30:20.481Z,6.81
2022-11-05T23:33:25.194Z,6.85
2022-11-05T23:36:47.880Z,6.86
2022-11-05T23:39:52.129Z,6.89
2022-11-05T23:43:15.780Z,6.95
2022-11-05T23:46:38.624Z,7.08
2022-11-05T23:49:42.517Z,7.00
2022-11-05T23:52:46.414Z,6.98
2022-11-05T23:55:50.752Z,7.12
2022-11-05T23:58:55.071Z,7.14
